sensor_id;sensor_type;location;lat;lon;timestamp;pressure;altitude;pressure_sealevel;temperature;humidity
17373;BME280;8803;48.116;11.590;2023-11-21T00:01:42;95133.34;;;11.29;100.00
17373;BME280;8803;48.116;11.590;2023-11-21T00:05:59;95128.07;;;11.37;100.00
17373;BME280;8803;48.116;11.590;2023-11-21T00:10:18;95120.56;;;11.36;100.00
17373;BME280;8803;48.116;11.590;2023-11-21T00:12:23;95120.05;;;11.33;100.00
17373;BME280;8803;48.116;11.590;2023-11-21T00:14:27;95121.02;;;11.32;100.00
17373;BME280;8803;48.116;11.590;2023-11-21T00:16:31;95113.88;;;11.32;100.00
17373;BME280;8803;48.116;11.590;2023-11-21T00:18:36;95112.22;;;11.31;100.00
17373;BME280;8803;48.116;11.590;2023-11-21T00:20:41;95110.72;;;11.33;100.00
17373;BME280;8803;48.116;11.590;2023-11-21T00:24:58;95099.67;;;11.28;100.00
17373;BME280;8803;48.116;11.590;2023-11-21T00:27:03;95095.33;;;11.23;100.00
17373;BME280;8803;48.116;11.590;2023-11-21T00:29:08;95091.33;;;11.23;100.00
17373;BME280;8803;48.116;11.590;2023-11-21T00:31:13;95089.15;;;11.22;100.00
17373;BME280;8803;48.116;11.590;2023-11-21T00:33:18;95082.66;;;11.21;100.00
17373;BME280;8803;48.116;11.590;2023-11-21T00:35:22;95088.80;;;11.21;100.00
17373;BME280;8803;48.116;11.590;2023-11-21T00:37:27;95079.98;;;11.21;100.00
17373;BME280;8803;48.116;11.590;2023-11-21T00:39:31;95080.31;;;11.22;100.00
17373;BME280;8803;48.116;11.590;2023-11-21T00:41:36;95084.67;;;11.23;100.00
17373;BME280;8803;48.116;11.590;2023-11-21T00:43:40;95080.80;;;11.21;100.00
17373;BME280;8803;48.116;11.590;2023-11-21T00:45:45;95077.81;;;11.20;100.00
17373;BME280;8803;48.116;11.590;2023-11-21T00:47:51;95078.30;;;11.20;100.00
17373;BME280;8803;48.116;11.590;2023-11-21T00:49:55;95069.98;;;11.19;100.00
17373;BME280;8803;48.116;11.590;2023-11-21T00:52:00;95069.63;;;11.18;100.00
17373;BME280;8803;48.116;11.590;2023-11-21T00:56:20;95069.33;;;11.21;100.00
17373;BME280;8803;48.116;11.590;2023-11-21T00:58:24;95067.62;;;11.16;100.00
17373;BME280;8803;48.116;11.590;2023-11-21T01:00:29;95066.77;;;11.15;100.00
17373;BME280;8803;48.116;11.590;2023-11-21T01:02:33;95066.45;;;11.14;100.00
17373;BME280;8803;48.116;11.590;2023-11-21T01:04:39;95065.96;;;11.15;100.00
17373;BME280;8803;48.116;11.590;2023-11-21T01:08:56;95066.97;;;11.18;100.00
17373;BME280;8803;48.116;11.590;2023-11-21T01:11:00;95078.59;;;11.13;100.00
17373;BME280;8803;48.116;11.590;2023-11-21T01:13:05;95076.06;;;11.11;100.00
17373;BME280;8803;48.116;11.590;2023-11-21T01:15:10;95075.74;;;11.10;100.00
17373;BME280;8803;48.116;11.590;2023-11-21T01:17:15;95073.56;;;11.09;100.00
17373;BME280;8803;48.116;11.590;2023-11-21T01:19:21;95077.08;;;11.10;100.00
17373;BME280;8803;48.116;11.590;2023-11-21T01:21:25;95069.08;;;11.10;100.00
17373;BME280;8803;48.116;11.590;2023-11-21T01:25:43;95069.95;;;11.15;100.00
17373;BME280;8803;48.116;11.590;2023-11-21T01:27:48;95066.91;;;11.09;100.00
17373;BME280;8803;48.116;11.590;2023-11-21T01:32:07;95060.44;;;11.12;100.00
17373;BME280;8803;48.116;11.590;2023-11-21T01:34:12;95067.55;;;11.07;100.00
17373;BME280;8803;48.116;11.590;2023-11-21T01:36:17;95067.20;;;11.06;100.00
17373;BME280;8803;48.116;11.590;2023-11-21T01:38:21;95070.39;;;11.06;100.00
17373;BME280;8803;48.116;11.590;2023-11-21T01:40:26;95073.70;;;11.04;100.00
17373;BME280;8803;48.116;11.590;2023-11-21T01:42:31;95073.51;;;11.01;100.00
17373;BME280;8803;48.116;11.590;2023-11-21T01:44:37;95080.81;;;10.99;100.00
17373;BME280;8803;48.116;11.590;2023-11-21T01:46:41;95086.63;;;10.99;100.00
17373;BME280;8803;48.116;11.590;2023-11-21T01:48:46;95078.13;;;10.95;100.00
17373;BME280;8803;48.116;11.590;2023-11-21T01:50:51;95077.92;;;10.93;100.00
17373;BME280;8803;48.116;11.590;2023-11-21T01:52:56;95070.91;;;10.92;100.00
17373;BME280;8803;48.116;11.590;2023-11-21T01:55:01;95073.93;;;10.93;100.00
17373;BME280;8803;48.116;11.590;2023-11-21T01:59:21;95069.77;;;10.94;100.00
17373;BME280;8803;48.116;11.590;2023-11-21T02:01:26;95078.22;;;10.90;100.00
17373;BME280;8803;48.116;11.590;2023-11-21T02:03:31;95073.90;;;10.89;100.00
17373;BME280;8803;48.116;11.590;2023-11-21T02:05:35;95080.06;;;10.89;100.00
17373;BME280;8803;48.116;11.590;2023-11-21T02:07:40;95078.22;;;10.90;100.00
17373;BME280;8803;48.116;11.590;2023-11-21T02:09:45;95081.72;;;10.90;100.00
17373;BME280;8803;48.116;11.590;2023-11-21T02:11:51;95084.74;;;10.91;100.00
17373;BME280;8803;48.116;11.590;2023-11-21T02:13:56;95084.74;;;10.91;100.00
17373;BME280;8803;48.116;11.590;2023-11-21T02:16:01;95079.74;;;10.92;100.00
17373;BME280;8803;48.116;11.590;2023-11-21T02:18:08;95086.76;;;10.93;100.00
17373;BME280;8803;48.116;11.590;2023-11-21T02:20:14;95083.73;;;10.92;100.00
17373;BME280;8803;48.116;11.590;2023-11-21T02:22:20;95087.25;;;10.93;100.00
17373;BME280;8803;48.116;11.590;2023-11-21T02:24:27;95088.73;;;10.91;100.00
17373;BME280;8803;48.116;11.590;2023-11-21T02:26:31;95087.25;;;10.93;100.00
17373;BME280;8803;48.116;11.590;2023-11-21T02:28:35;95088.58;;;10.93;100.00
17373;BME280;8803;48.116;11.590;2023-11-21T02:30:41;95084.09;;;10.93;100.00
17373;BME280;8803;48.116;11.590;2023-11-21T02:32:46;95089.75;;;10.94;100.00
17373;BME280;8803;48.116;11.590;2023-11-21T02:34:51;95088.77;;;10.95;100.00
17373;BME280;8803;48.116;11.590;2023-11-21T02:36:56;95087.28;;;10.97;100.00
17373;BME280;8803;48.116;11.590;2023-11-21T02:39:01;95093.25;;;10.95;100.00
17373;BME280;8803;48.116;11.590;2023-11-21T02:41:05;95090.39;;;10.92;100.00
17373;BME280;8803;48.116;11.590;2023-11-21T02:43:09;95087.57;;;10.94;100.00
17373;BME280;8803;48.116;11.590;2023-11-21T02:47:27;95085.49;;;11.01;100.00
17373;BME280;8803;48.116;11.590;2023-11-21T02:49:31;95087.77;;;10.96;100.00
17373;BME280;8803;48.116;11.590;2023-11-21T02:51:37;95087.77;;;10.96;100.00
17373;BME280;8803;48.116;11.590;2023-11-21T02:53:42;95079.09;;;10.94;100.00
17373;BME280;8803;48.116;11.590;2023-11-21T02:55:47;95071.46;;;10.95;100.00
17373;BME280;8803;48.116;11.590;2023-11-21T02:57:51;95074.94;;;10.96;100.00
17373;BME280;8803;48.116;11.590;2023-11-21T02:59:56;95066.62;;;10.95;100.00
17373;BME280;8803;48.116;11.590;2023-11-21T03:02:00;95067.95;;;10.95;100.00
17373;BME280;8803;48.116;11.590;2023-11-21T03:04:06;95059.48;;;10.95;100.00
17373;BME280;8803;48.116;11.590;2023-11-21T03:06:10;95062.47;;;10.96;100.00
17373;BME280;8803;48.116;11.590;2023-11-21T03:08:15;95056.30;;;10.96;100.00
17373;BME280;8803;48.116;11.590;2023-11-21T03:10:19;95053.30;;;10.95;100.00
17373;BME280;8803;48.116;11.590;2023-11-21T03:14:37;95056.84;;;10.99;100.00
17373;BME280;8803;48.116;11.590;2023-11-21T03:16:41;95058.28;;;10.94;100.00
17373;BME280;8803;48.116;11.590;2023-11-21T03:21:01;95057.33;;;10.99;100.00
17373;BME280;8803;48.116;11.590;2023-11-21T03:23:06;95056.13;;;10.93;100.00
17373;BME280;8803;48.116;11.590;2023-11-21T03:27:25;95054.83;;;10.97;100.00
17373;BME280;8803;48.116;11.590;2023-11-21T03:29:30;95050.45;;;10.92;100.00
17373;BME280;8803;48.116;11.590;2023-11-21T03:31:35;95050.45;;;10.92;100.00
17373;BME280;8803;48.116;11.590;2023-11-21T03:33:39;95045.97;;;10.93;100.00
17373;BME280;8803;48.116;11.590;2023-11-21T03:35:44;95042.81;;;10.93;100.00
17373;BME280;8803;48.116;11.590;2023-11-21T03:37:49;95047.63;;;10.94;100.00
17373;BME280;8803;48.116;11.590;2023-11-21T03:39:53;95047.14;;;10.94;100.00
17373;BME280;8803;48.116;11.590;2023-11-21T03:41:58;95049.64;;;10.96;100.00
17373;BME280;8803;48.116;11.590;2023-11-21T03:46:16;95045.05;;;11.02;100.00
17373;BME280;8803;48.116;11.590;2023-11-21T03:48:21;95045.51;;;10.97;100.00
17373;BME280;8803;48.116;11.590;2023-11-21T03:52:38;95044.20;;;11.01;100.00
17373;BME280;8803;48.116;11.590;2023-11-21T03:54:43;95047.81;;;10.96;100.00
17373;BME280;8803;48.116;11.590;2023-11-21T03:59:00;95050.19;;;10.99;100.00
17373;BME280;8803;48.116;11.590;2023-11-21T04:01:07;95051.30;;;10.93;100.00
17373;BME280;8803;48.116;11.590;2023-11-21T04:05:24;95049.80;;;10.94;100.00
17373;BME280;8803;48.116;11.590;2023-11-21T04:07:29;95052.92;;;10.90;100.00
17373;BME280;8803;48.116;11.590;2023-11-21T04:11:44;95054.12;;;10.91;100.00
17373;BME280;8803;48.116;11.590;2023-11-21T04:13:49;95057.56;;;10.88;100.00
17373;BME280;8803;48.116;11.590;2023-11-21T04:18:06;95052.11;;;10.89;100.00
17373;BME280;8803;48.116;11.590;2023-11-21T04:20:11;95052.56;;;10.85;100.00
17373;BME280;8803;48.116;11.590;2023-11-21T04:24:29;95048.11;;;10.89;100.00
17373;BME280;8803;48.116;11.590;2023-11-21T04:26:33;95052.89;;;10.86;100.00
17373;BME280;8803;48.116;11.590;2023-11-21T04:28:38;95053.38;;;10.85;100.00
17373;BME280;8803;48.116;11.590;2023-11-21T04:32:55;95053.77;;;10.90;100.00
17373;BME280;8803;48.116;11.590;2023-11-21T04:37:13;95052.43;;;10.90;100.00
17373;BME280;8803;48.116;11.590;2023-11-21T04:39:17;95067.20;;;10.85;100.00
17373;BME280;8803;48.116;11.590;2023-11-21T04:41:22;95067.05;;;10.86;100.00
17373;BME280;8803;48.116;11.590;2023-11-21T04:43:27;95063.05;;;10.86;100.00
17373;BME280;8803;48.116;11.590;2023-11-21T04:45:31;95066.04;;;10.87;100.00
17373;BME280;8803;48.116;11.590;2023-11-21T04:47:36;95052.72;;;10.87;100.00
17373;BME280;8803;48.116;11.590;2023-11-21T04:51:54;95055.80;;;10.96;100.00
17373;BME280;8803;48.116;11.590;2023-11-21T04:53:58;95060.26;;;10.92;100.00
17373;BME280;8803;48.116;11.590;2023-11-21T04:56:04;95061.27;;;10.91;100.00
17373;BME280;8803;48.116;11.590;2023-11-21T05:00:21;95055.97;;;10.95;100.00
17373;BME280;8803;48.116;11.590;2023-11-21T05:04:39;95061.63;;;10.96;100.00
17373;BME280;8803;48.116;11.590;2023-11-21T05:06:45;95063.44;;;10.91;100.00
17373;BME280;8803;48.116;11.590;2023-11-21T05:08:50;95070.42;;;10.92;100.00
17373;BME280;8803;48.116;11.590;2023-11-21T05:10:55;95068.61;;;10.93;100.00
17373;BME280;8803;48.116;11.590;2023-11-21T05:12:59;95065.45;;;10.93;100.00
17373;BME280;8803;48.116;11.590;2023-11-21T05:15:07;95056.62;;;10.93;100.00
17373;BME280;8803;48.116;11.590;2023-11-21T05:17:13;95057.95;;;10.93;100.00
17373;BME280;8803;48.116;11.590;2023-11-21T05:19:17;95057.95;;;10.93;100.00
17373;BME280;8803;48.116;11.590;2023-11-21T05:21:22;95067.76;;;10.92;100.00
17373;BME280;8803;48.116;11.590;2023-11-21T05:23:27;95071.27;;;10.93;100.00
17373;BME280;8803;48.116;11.590;2023-11-21T05:25:32;95071.43;;;10.91;100.00
17373;BME280;8803;48.116;11.590;2023-11-21T05:27:36;95076.08;;;10.89;100.00
17373;BME280;8803;48.116;11.590;2023-11-21T05:29:41;95076.56;;;10.89;100.00
17373;BME280;8803;48.116;11.590;2023-11-21T05:31:45;95080.69;;;10.87;100.00
17373;BME280;8803;48.116;11.590;2023-11-21T05:33:49;95075.52;;;10.86;100.00
17373;BME280;8803;48.116;11.590;2023-11-21T05:35:54;95083.02;;;10.86;100.00
17373;BME280;8803;48.116;11.590;2023-11-21T05:37:58;95081.85;;;10.85;100.00
17373;BME280;8803;48.116;11.590;2023-11-21T05:40:03;95088.84;;;10.86;100.00
17373;BME280;8803;48.116;11.590;2023-11-21T05:44:21;95074.55;;;10.87;100.00
17373;BME280;8803;48.116;11.590;2023-11-21T05:46:26;95089.00;;;10.84;100.00
17373;BME280;8803;48.116;11.590;2023-11-21T05:48:30;95088.16;;;10.84;100.00
17373;BME280;8803;48.116;11.590;2023-11-21T05:50:35;95085.33;;;10.85;100.00
17373;BME280;8803;48.116;11.590;2023-11-21T05:54:53;95083.55;;;10.90;100.00
17373;BME280;8803;48.116;11.590;2023-11-21T05:56:58;95088.84;;;10.86;100.00
17373;BME280;8803;48.116;11.590;2023-11-21T05:59:03;95090.52;;;10.87;100.00
17373;BME280;8803;48.116;11.590;2023-11-21T06:01:09;95087.18;;;10.85;100.00
17373;BME280;8803;48.116;11.590;2023-11-21T06:03:15;95088.51;;;10.85;100.00
17373;BME280;8803;48.116;11.590;2023-11-21T06:05:21;95094.33;;;10.84;100.00
17373;BME280;8803;48.116;11.590;2023-11-21T06:07:27;95089.97;;;10.83;100.00
17373;BME280;8803;48.116;11.590;2023-11-21T06:09:32;95093.28;;;10.81;100.00
17373;BME280;8803;48.116;11.590;2023-11-21T06:11:37;95094.13;;;10.82;100.00
17373;BME280;8803;48.116;11.590;2023-11-21T06:13:42;95091.47;;;10.82;100.00
17373;BME280;8803;48.116;11.590;2023-11-21T06:15:46;95100.78;;;10.82;100.00
17373;BME280;8803;48.116;11.590;2023-11-21T06:20:11;95098.31;;;10.84;100.00
17373;BME280;8803;48.116;11.590;2023-11-21T06:22:16;95105.78;;;10.81;100.00
17373;BME280;8803;48.116;11.590;2023-11-21T06:24:21;95107.44;;;10.82;100.00
17373;BME280;8803;48.116;11.590;2023-11-21T06:26:25;95104.09;;;10.80;100.00
17373;BME280;8803;48.116;11.590;2023-11-21T06:28:31;95112.44;;;10.81;100.00
17373;BME280;8803;48.116;11.590;2023-11-21T06:32:48;95108.97;;;10.84;100.00
17373;BME280;8803;48.116;11.590;2023-11-21T06:37:06;95107.64;;;10.84;100.00
17373;BME280;8803;48.116;11.590;2023-11-21T06:39:11;95115.91;;;10.81;100.00
17373;BME280;8803;48.116;11.590;2023-11-21T06:43:30;95118.97;;;10.86;100.00
17373;BME280;8803;48.116;11.590;2023-11-21T06:47:47;95115.47;;;10.86;100.00
17373;BME280;8803;48.116;11.590;2023-11-21T06:49:53;95124.59;;;10.83;100.00
17373;BME280;8803;48.116;11.590;2023-11-21T06:51:57;95121.11;;;10.83;100.00
17373;BME280;8803;48.116;11.590;2023-11-21T06:54:02;95131.11;;;10.85;100.00
17373;BME280;8803;48.116;11.590;2023-11-21T06:58:29;95135.99;;;10.89;100.00
17373;BME280;8803;48.116;11.590;2023-11-21T07:00:33;95136.93;;;10.84;100.00
17373;BME280;8803;48.116;11.590;2023-11-21T07:02:37;95141.77;;;10.85;100.00
17373;BME280;8803;48.116;11.590;2023-11-21T07:04:42;95140.44;;;10.85;100.00
17373;BME280;8803;48.116;11.590;2023-11-21T07:06:46;95142.94;;;10.86;100.00
17373;BME280;8803;48.116;11.590;2023-11-21T07:08:51;95147.42;;;10.86;100.00
17373;BME280;8803;48.116;11.590;2023-11-21T07:10:55;95141.94;;;10.87;100.00
17373;BME280;8803;48.116;11.590;2023-11-21T07:15:13;95145.67;;;10.94;100.00
17373;BME280;8803;48.116;11.590;2023-11-21T07:17:17;95145.16;;;10.91;100.00
17373;BME280;8803;48.116;11.590;2023-11-21T07:19:22;95149.99;;;10.91;100.00
17373;BME280;8803;48.116;11.590;2023-11-21T07:21:26;95153.47;;;10.92;100.00
17373;BME280;8803;48.116;11.590;2023-11-21T07:23:31;95156.00;;;10.93;100.00
17373;BME280;8803;48.116;11.590;2023-11-21T07:25:35;95156.00;;;10.93;100.00
17373;BME280;8803;48.116;11.590;2023-11-21T07:27:40;95160.81;;;10.94;100.00
17373;BME280;8803;48.116;11.590;2023-11-21T07:29:44;95156.33;;;10.94;100.00
17373;BME280;8803;48.116;11.590;2023-11-21T07:31:49;95161.17;;;10.95;100.00
17373;BME280;8803;48.116;11.590;2023-11-21T07:33:54;95159.48;;;10.94;100.00
17373;BME280;8803;48.116;11.590;2023-11-21T07:36:00;95156.33;;;10.94;100.00
17373;BME280;8803;48.116;11.590;2023-11-21T07:38:04;95158.51;;;10.95;100.00
17373;BME280;8803;48.116;11.590;2023-11-21T07:42:24;95158.38;;;11.00;100.00
17373;BME280;8803;48.116;11.590;2023-11-21T07:44:30;95164.52;;;10.97;100.00
17373;BME280;8803;48.116;11.590;2023-11-21T07:46:35;95156.85;;;10.98;100.00
17373;BME280;8803;48.116;11.590;2023-11-21T07:50:52;95160.11;;;11.05;100.00
17373;BME280;8803;48.116;11.590;2023-11-21T07:52:57;95167.91;;;11.03;100.00
17373;BME280;8803;48.116;11.590;2023-11-21T07:55:03;95171.25;;;11.05;100.00
17373;BME280;8803;48.116;11.590;2023-11-21T07:57:08;95167.94;;;11.07;100.00
17373;BME280;8803;48.116;11.590;2023-11-21T08:01:27;95160.86;;;11.16;100.00
17373;BME280;8803;48.116;11.590;2023-11-21T08:03:31;95175.84;;;11.13;100.00
17373;BME280;8803;48.116;11.590;2023-11-21T08:10:00;95173.25;;;11.21;100.00
17373;BME280;8803;48.116;11.590;2023-11-21T08:12:07;95174.38;;;11.18;100.00
17373;BME280;8803;48.116;11.590;2023-11-21T08:16:26;95176.63;;;11.27;100.00
17373;BME280;8803;48.116;11.590;2023-11-21T08:18:31;95179.94;;;11.25;100.00
17373;BME280;8803;48.116;11.590;2023-11-21T08:20:35;95167.95;;;11.25;100.00
17373;BME280;8803;48.116;11.590;2023-11-21T08:22:42;95174.94;;;11.26;100.00
17373;BME280;8803;48.116;11.590;2023-11-21T08:24:46;95174.28;;;11.28;100.00
17373;BME280;8803;48.116;11.590;2023-11-21T08:29:03;95171.69;;;11.36;100.00
17373;BME280;8803;48.116;11.590;2023-11-21T08:31:10;95173.34;;;11.33;100.00
17373;BME280;8803;48.116;11.590;2023-11-21T08:33:14;95172.34;;;11.34;100.00
17373;BME280;8803;48.116;11.590;2023-11-21T08:35:19;95180.69;;;11.35;100.00
17373;BME280;8803;48.116;11.590;2023-11-21T08:37:24;95174.88;;;11.35;100.00
17373;BME280;8803;48.116;11.590;2023-11-21T08:39:29;95174.22;;;11.37;100.00
17373;BME280;8803;48.116;11.590;2023-11-21T08:41:34;95172.41;;;11.38;100.00
17373;BME280;8803;48.116;11.590;2023-11-21T08:45:52;95166.09;;;11.43;100.00
17373;BME280;8803;48.116;11.590;2023-11-21T08:47:56;95169.90;;;11.40;100.00
17373;BME280;8803;48.116;11.590;2023-11-21T08:50:01;95173.41;;;11.41;100.00
17373;BME280;8803;48.116;11.590;2023-11-21T08:54:22;95170.13;;;11.47;100.00
17373;BME280;8803;48.116;11.590;2023-11-21T08:58:39;95168.98;;;11.49;100.00
17373;BME280;8803;48.116;11.590;2023-11-21T09:00:44;95168.98;;;11.49;100.00
17373;BME280;8803;48.116;11.590;2023-11-21T09:02:49;95174.70;;;11.54;100.00
17373;BME280;8803;48.116;11.590;2023-11-21T09:04:53;95172.52;;;11.54;100.00
17373;BME280;8803;48.116;11.590;2023-11-21T09:06:57;95176.55;;;11.58;100.00
17373;BME280;8803;48.116;11.590;2023-11-21T09:09:03;95177.42;;;11.62;100.00
17373;BME280;8803;48.116;11.590;2023-11-21T09:11:08;95173.94;;;11.66;100.00
17373;BME280;8803;48.116;11.590;2023-11-21T09:13:13;95178.84;;;11.70;100.00
17373;BME280;8803;48.116;11.590;2023-11-21T09:15:19;95181.05;;;11.75;100.00
17373;BME280;8803;48.116;11.590;2023-11-21T09:17:24;95180.23;;;11.78;100.00
17373;BME280;8803;48.116;11.590;2023-11-21T09:19:28;95190.44;;;11.83;100.00
17373;BME280;8803;48.116;11.590;2023-11-21T09:23:46;95191.71;;;11.97;100.00
17373;BME280;8803;48.116;11.590;2023-11-21T09:25:51;95191.33;;;11.92;100.00
17373;BME280;8803;48.116;11.590;2023-11-21T09:27:57;95200.02;;;11.94;100.00
17373;BME280;8803;48.116;11.590;2023-11-21T09:30:01;95201.05;;;11.97;100.00
17373;BME280;8803;48.116;11.590;2023-11-21T09:32:08;95208.55;;;12.01;100.00
17373;BME280;8803;48.116;11.590;2023-11-21T09:36:34;95198.43;;;12.05;97.38
17373;BME280;8803;48.116;11.590;2023-11-21T09:38:40;95206.05;;;12.00;97.35
17373;BME280;8803;48.116;11.590;2023-11-21T09:42:59;95207.77;;;12.05;98.01
17373;BME280;8803;48.116;11.590;2023-11-21T09:47:20;95209.78;;;12.07;100.00
17373;BME280;8803;48.116;11.590;2023-11-21T09:51:39;95206.78;;;12.10;100.00
17373;BME280;8803;48.116;11.590;2023-11-21T09:53:46;95207.41;;;12.04;100.00
17373;BME280;8803;48.116;11.590;2023-11-21T09:55:53;95205.23;;;12.03;100.00
17373;BME280;8803;48.116;11.590;2023-11-21T09:57:59;95204.75;;;12.04;100.00
17373;BME280;8803;48.116;11.590;2023-11-21T10:00:06;95208.75;;;12.04;100.00
17373;BME280;8803;48.116;11.590;2023-11-21T10:02:13;95204.44;;;12.07;100.00
17373;BME280;8803;48.116;11.590;2023-11-21T10:04:19;95206.63;;;12.07;100.00
17373;BME280;8803;48.116;11.590;2023-11-21T10:06:25;95204.28;;;12.08;100.00
17373;BME280;8803;48.116;11.590;2023-11-21T10:08:30;95204.63;;;12.09;100.00
17373;BME280;8803;48.116;11.590;2023-11-21T10:10:36;95199.45;;;12.12;100.00
17373;BME280;8803;48.116;11.590;2023-11-21T10:12:43;95207.33;;;12.13;100.00
17373;BME280;8803;48.116;11.590;2023-11-21T10:14:50;95204.49;;;12.15;100.00
17373;BME280;8803;48.116;11.590;2023-11-21T10:16:55;95202.50;;;12.17;100.00
17373;BME280;8803;48.116;11.590;2023-11-21T10:19:01;95206.33;;;12.18;100.00
17373;BME280;8803;48.116;11.590;2023-11-21T10:21:06;95211.02;;;12.20;100.00
17373;BME280;8803;48.116;11.590;2023-11-21T10:25:25;95203.23;;;12.31;100.00
17373;BME280;8803;48.116;11.590;2023-11-21T10:27:29;95208.39;;;12.28;100.00
17373;BME280;8803;48.116;11.590;2023-11-21T10:31:49;95200.08;;;12.31;96.15
17373;BME280;8803;48.116;11.590;2023-11-21T10:33:56;95202.23;;;12.28;97.14
17373;BME280;8803;48.116;11.590;2023-11-21T10:36:01;95200.56;;;12.31;98.95
17373;BME280;8803;48.116;11.590;2023-11-21T10:38:06;95193.59;;;12.34;100.00
17373;BME280;8803;48.116;11.590;2023-11-21T10:40:12;95205.27;;;12.37;99.67
17373;BME280;8803;48.116;11.590;2023-11-21T10:44:31;95203.46;;;12.41;94.90
17373;BME280;8803;48.116;11.590;2023-11-21T10:46:36;95208.30;;;12.38;95.20
17373;BME280;8803;48.116;11.590;2023-11-21T10:48:42;95215.29;;;12.39;95.45
17373;BME280;8803;48.116;11.590;2023-11-21T10:50:47;95210.80;;;12.39;95.11
17373;BME280;8803;48.116;11.590;2023-11-21T10:52:52;95203.95;;;12.41;96.51
17373;BME280;8803;48.116;11.590;2023-11-21T10:54:56;95200.47;;;12.40;94.82
17373;BME280;8803;48.116;11.590;2023-11-21T10:57:02;95207.95;;;12.41;94.73
17373;BME280;8803;48.116;11.590;2023-11-21T10:59:09;95197.47;;;12.43;97.46
17373;BME280;8803;48.116;11.590;2023-11-21T11:01:19;95198.98;;;12.46;98.64
17373;BME280;8803;48.116;11.590;2023-11-21T11:03:25;95198.14;;;12.45;97.22
17373;BME280;8803;48.116;11.590;2023-11-21T11:05:31;95197.65;;;12.46;96.28
17373;BME280;8803;48.116;11.590;2023-11-21T11:07:36;95196.14;;;12.47;95.83
17373;BME280;8803;48.116;11.590;2023-11-21T11:09:41;95196.12;;;12.43;93.59
17373;BME280;8803;48.116;11.590;2023-11-21T11:11:47;95196.47;;;12.40;90.86
17373;BME280;8803;48.116;11.590;2023-11-21T11:13:53;95194.61;;;12.41;94.95
17373;BME280;8803;48.116;11.590;2023-11-21T11:15:59;95196.65;;;12.43;97.37
17373;BME280;8803;48.116;11.590;2023-11-21T11:18:04;95192.97;;;12.44;98.54
17373;BME280;8803;48.116;11.590;2023-11-21T11:20:12;95197.16;;;12.46;99.21
17373;BME280;8803;48.116;11.590;2023-11-21T11:27:34;95194.91;;;12.67;99.29
17373;BME280;8803;48.116;11.590;2023-11-21T11:32:00;95193.77;;;12.70;99.23
17373;BME280;8803;48.116;11.590;2023-11-21T11:36:28;95187.23;;;12.73;99.30
17373;BME280;8803;48.116;11.590;2023-11-21T11:38:33;95189.74;;;12.66;98.22
17373;BME280;8803;48.116;11.590;2023-11-21T11:43:00;95187.91;;;12.75;99.09
17373;BME280;8803;48.116;11.590;2023-11-21T11:47:32;95185.91;;;12.73;93.76
17373;BME280;8803;48.116;11.590;2023-11-21T11:49:36;95188.23;;;12.67;94.58
17373;BME280;8803;48.116;11.590;2023-11-21T11:51:42;95190.23;;;12.65;96.31
17373;BME280;8803;48.116;11.590;2023-11-21T11:53:47;95187.88;;;12.66;98.31
17373;BME280;8803;48.116;11.590;2023-11-21T11:56:19;95184.71;;;12.63;97.19
17373;BME280;8803;48.116;11.590;2023-11-21T11:58:26;95189.20;;;12.62;98.03
17373;BME280;8803;48.116;11.590;2023-11-21T12:00:36;95189.74;;;12.66;98.30
17373;BME280;8803;48.116;11.590;2023-11-21T12:02:43;95182.36;;;12.64;96.08
17373;BME280;8803;48.116;11.590;2023-11-21T12:07:02;95177.89;;;12.73;98.11
17373;BME280;8803;48.116;11.590;2023-11-21T12:09:07;95182.90;;;12.67;97.57
17373;BME280;8803;48.116;11.590;2023-11-21T12:11:14;95188.56;;;12.68;98.12
17373;BME280;8803;48.116;11.590;2023-11-21T12:13:20;95186.91;;;12.67;98.42
17373;BME280;8803;48.116;11.590;2023-11-21T12:17:42;95184.23;;;12.67;94.61
17373;BME280;8803;48.116;11.590;2023-11-21T12:19:46;95192.37;;;12.62;95.99
17373;BME280;8803;48.116;11.590;2023-11-21T12:21:50;95189.55;;;12.59;95.54
17373;BME280;8803;48.116;11.590;2023-11-21T12:23:55;95192.03;;;12.57;95.35
17373;BME280;8803;48.116;11.590;2023-11-21T12:25:59;95190.53;;;12.58;97.15
17373;BME280;8803;48.116;11.590;2023-11-21T12:30:18;95188.36;;;12.62;97.09
17373;BME280;8803;48.116;11.590;2023-11-21T12:32:24;95192.22;;;12.59;97.86
17373;BME280;8803;48.116;11.590;2023-11-21T12:34:29;95183.69;;;12.60;98.12
17373;BME280;8803;48.116;11.590;2023-11-21T12:36:33;95185.02;;;12.60;96.34
17373;BME280;8803;48.116;11.590;2023-11-21T12:38:38;95188.05;;;12.61;96.61
17373;BME280;8803;48.116;11.590;2023-11-21T12:40:43;95179.86;;;12.62;97.60
17373;BME280;8803;48.116;11.590;2023-11-21T12:42:50;95180.21;;;12.63;97.00
17373;BME280;8803;48.116;11.590;2023-11-21T12:45:18;95177.20;;;12.66;97.88
17373;BME280;8803;48.116;11.590;2023-11-21T12:47:19;95180.05;;;12.69;98.33
17373;BME280;8803;48.116;11.590;2023-11-21T12:49:24;95180.41;;;12.70;96.62
17373;BME280;8803;48.116;11.590;2023-11-21T12:51:29;95187.41;;;12.71;97.37
17373;BME280;8803;48.116;11.590;2023-11-21T12:55:45;95184.75;;;12.75;94.60
17373;BME280;8803;48.116;11.590;2023-11-21T12:57:53;95192.26;;;12.72;95.49
17373;BME280;8803;48.116;11.590;2023-11-21T13:02:12;95188.75;;;12.75;95.52
17373;BME280;8803;48.116;11.590;2023-11-21T13:04:18;95192.92;;;12.69;96.43
17373;BME280;8803;48.116;11.590;2023-11-21T13:08:35;95212.73;;;12.59;89.54
17373;BME280;8803;48.116;11.590;2023-11-21T13:10:43;95215.49;;;12.45;89.50
17373;BME280;8803;48.116;11.590;2023-11-21T13:12:49;95212.77;;;12.33;88.84
17373;BME280;8803;48.116;11.590;2023-11-21T13:14:54;95210.38;;;12.26;92.63
17373;BME280;8803;48.116;11.590;2023-11-21T13:16:59;95210.04;;;12.21;95.09
17373;BME280;8803;48.116;11.590;2023-11-21T13:19:04;95206.15;;;12.16;96.21